Arab, Missouri
Current Conditions -  °F | °C
As of 8:07 AM on Monday 22 Dec 2014 (Local Time) from KPOF Reporting Station
Haze Haze  
Wind Chill: 39°   Ceiling: 300
Heat Index: 45°   Visibility: 3mi
Dew Point: 43°   Wind: 12mph
Humidity: 93%   Direction: 150°SSE
Pressure: 29.78"   Gusts: NA
Location:  37.1241°N, 90.0834°W
Report Text: KPOF 221407Z AUTO 15010KT 3SM BR OVC003 07/06 A2978 RMK AO2 RAE04 P0000 T00720061
Loading
Personal Weather Stations






























Interactive Weather Map New forecast layout! Learn more

10-Day Weather Forecast

Advertisements
Track Severe Weather on mobile